createdAt,value
2019-04-28T00:01:28.091Z,3.72
2019-04-28T00:03:55.384Z,3.67
2019-04-28T00:06:22.420Z,3.65
2019-04-28T00:08:49.451Z,3.65
2019-04-28T00:11:16.570Z,3.66
2019-04-28T00:13:43.602Z,3.70
2019-04-28T00:16:11.588Z,3.71
2019-04-28T00:18:38.842Z,3.74
2019-04-28T00:21:06.858Z,3.70
2019-04-28T00:23:33.889Z,3.68
2019-04-28T00:26:01.533Z,3.65
2019-04-28T00:28:29.045Z,3.57
2019-04-28T00:30:56.093Z,3.50
2019-04-28T00:33:23.125Z,3.46
2019-04-28T00:35:51.542Z,3.45
2019-04-28T00:38:19.014Z,3.47
2019-04-28T00:40:46.075Z,3.50
2019-04-28T00:43:13.339Z,3.48
2019-04-28T00:45:41.334Z,3.51
2019-04-28T00:48:08.396Z,3.57
2019-04-28T00:50:35.687Z,3.58
2019-04-28T00:53:02.722Z,3.57
2019-04-28T00:55:29.769Z,3.63
2019-04-28T00:57:56.872Z,3.60
2019-04-28T01:00:24.187Z,3.54
2019-04-28T01:02:51.208Z,3.52
2019-04-28T01:05:18.257Z,3.53
2019-04-28T01:07:45.293Z,3.53
2019-04-28T01:10:12.335Z,3.47
2019-04-28T01:12:41.128Z,3.40
2019-04-28T01:15:10.248Z,3.34
2019-04-28T01:17:40.450Z,3.38
2019-04-28T01:20:07.483Z,3.40
2019-04-28T01:22:34.773Z,3.45
2019-04-28T01:25:01.809Z,3.51
2019-04-28T01:27:30.402Z,3.53
2019-04-28T01:30:07.584Z,3.54
2019-04-28T01:32:26.249Z,3.55
2019-04-28T01:34:53.285Z,3.54
2019-04-28T01:37:20.337Z,3.51
2019-04-28T01:39:49.489Z,3.52
2019-04-28T01:42:16.355Z,3.50
2019-04-28T01:44:43.706Z,3.51
2019-04-28T01:47:11.064Z,3.48
2019-04-28T01:49:40.432Z,3.42
2019-04-28T01:52:07.513Z,3.35
2019-04-28T01:54:34.552Z,3.28
2019-04-28T01:57:01.690Z,3.28
2019-04-28T01:59:30.361Z,3.26
2019-04-28T02:01:57.508Z,3.26
2019-04-28T02:04:24.807Z,3.25
2019-04-28T02:06:52.157Z,3.27
2019-04-28T02:09:19.536Z,3.29
2019-04-28T02:11:46.865Z,3.28
2019-04-28T02:14:14.221Z,3.28
2019-04-28T02:16:41.281Z,3.26
2019-04-28T02:19:10.624Z,3.22
2019-04-28T02:21:37.365Z,3.19
2019-04-28T02:24:04.405Z,3.14
2019-04-28T02:26:31.447Z,3.10
2019-04-28T02:29:00.284Z,3.07
2019-04-28T02:31:27.370Z,3.06
2019-04-28T02:33:54.667Z,3.05
2019-04-28T02:36:22.005Z,3.02
2019-04-28T02:38:51.340Z,3.03
2019-04-28T02:41:20.706Z,3.00
2019-04-28T02:43:47.167Z,3.03
2019-04-28T02:46:14.194Z,3.04
2019-04-28T02:48:41.521Z,3.07
2019-04-28T02:51:10.859Z,3.11
2019-04-28T02:53:37.270Z,3.17
2019-04-28T02:56:05.275Z,3.22
2019-04-28T02:58:32.308Z,3.22
2019-04-28T03:01:10.718Z,3.26
2019-04-28T03:03:30.649Z,3.29
2019-04-28T03:05:57.060Z,3.24
2019-04-28T03:08:24.116Z,3.25
2019-04-28T03:10:51.390Z,3.24
2019-04-28T03:13:20.921Z,3.21
2019-04-28T03:15:47.403Z,3.18
2019-04-28T03:18:14.445Z,3.14
2019-04-28T03:20:42.040Z,3.06
2019-04-28T03:23:12.258Z,2.98
2019-04-28T03:25:40.832Z,2.91
2019-04-28T03:28:06.804Z,2.87
2019-04-28T03:30:34.301Z,2.85
2019-04-28T03:33:10.726Z,2.86
2019-04-28T03:35:32.637Z,2.97
2019-04-28T03:38:01.240Z,3.04
2019-04-28T03:40:27.654Z,3.06
2019-04-28T03:42:54.705Z,3.09
2019-04-28T03:45:21.736Z,3.16
2019-04-28T03:47:50.915Z,3.17
2019-04-28T03:50:20.082Z,3.15
2019-04-28T03:52:46.248Z,3.17
2019-04-28T03:55:13.297Z,3.21
2019-04-28T03:57:41.260Z,3.26
2019-04-28T04:00:10.964Z,3.27
2019-04-28T04:02:37.284Z,3.30
2019-04-28T04:05:04.659Z,3.31
2019-04-28T04:07:31.690Z,3.33
2019-04-28T04:10:00.912Z,3.36
2019-04-28T04:12:27.465Z,3.36
2019-04-28T04:14:54.522Z,3.39
2019-04-28T04:17:21.555Z,3.45
2019-04-28T04:19:50.338Z,3.46
2019-04-28T04:22:17.421Z,3.45
2019-04-28T04:24:44.728Z,3.41
2019-04-28T04:27:12.091Z,3.37
2019-04-28T04:29:43.312Z,3.31
2019-04-28T04:32:15.177Z,3.28
2019-04-28T04:34:36.870Z,3.33
2019-04-28T04:37:03.903Z,3.43
2019-04-28T04:39:31.221Z,3.59
2019-04-28T04:42:00.576Z,3.76
2019-04-28T04:44:27.077Z,3.93
2019-04-28T04:46:54.412Z,3.99
2019-04-28T04:49:21.838Z,3.96
2019-04-28T04:51:50.856Z,3.90
2019-04-28T04:54:20.268Z,3.84
2019-04-28T04:56:46.596Z,3.81
2019-04-28T04:59:13.645Z,3.81
2019-04-28T05:01:41.032Z,3.86
2019-04-28T05:04:09.663Z,3.97
2019-04-28T05:06:37.040Z,4.03
2019-04-28T05:09:04.393Z,4.15
2019-04-28T05:11:31.729Z,4.57
2019-04-28T05:13:59.646Z,4.52
2019-04-28T05:16:26.897Z,4.47
2019-04-28T05:18:53.939Z,5.50
2019-04-28T05:21:21.574Z,7.87
2019-04-28T05:23:49.324Z,9.92
2019-04-28T05:26:17.341Z,11.55
2019-04-28T05:28:51.442Z,12.46
2019-04-28T05:31:19.957Z,13.50
2019-04-28T05:33:42.233Z,14.52
2019-04-28T05:36:09.883Z,15.29
2019-04-28T05:38:37.249Z,16.12
2019-04-28T05:41:04.616Z,16.94
2019-04-28T05:43:31.655Z,17.80
2019-04-28T05:46:00.278Z,18.64
2019-04-28T05:48:27.530Z,19.23
2019-04-28T05:50:54.582Z,19.62
2019-04-28T05:53:21.905Z,20.04
2019-04-28T05:55:50.198Z,20.64
2019-04-28T05:58:17.469Z,20.99
2019-04-28T06:00:44.523Z,21.41
2019-04-28T06:03:11.552Z,21.91
2019-04-28T06:05:39.488Z,21.40
2019-04-28T06:08:06.961Z,21.68
2019-04-28T06:10:34.316Z,21.89
2019-04-28T06:13:01.357Z,22.32
2019-04-28T06:15:29.608Z,22.58
2019-04-28T06:17:56.607Z,22.98
2019-04-28T06:20:23.897Z,22.80
2019-04-28T06:22:51.105Z,22.60
2019-04-28T06:25:18.200Z,21.07
2019-04-28T06:27:45.204Z,18.80
2019-04-28T06:30:14.410Z,16.79
2019-04-28T06:32:41.462Z,15.25
2019-04-28T06:35:09.928Z,14.75
2019-04-28T06:37:37.265Z,14.09
2019-04-28T06:40:16.341Z,13.52
2019-04-28T06:42:43.835Z,13.31
2019-04-28T06:45:12.890Z,14.08
2019-04-28T06:47:40.183Z,16.09
2019-04-28T06:50:07.422Z,17.10
2019-04-28T06:52:35.717Z,17.28
2019-04-28T06:55:04.006Z,16.13
2019-04-28T06:57:37.980Z,15.14
2019-04-28T07:00:08.282Z,15.29
2019-04-28T07:02:35.558Z,16.38
2019-04-28T07:05:04.722Z,18.31
2019-04-28T07:07:32.916Z,19.38
2019-04-28T07:10:01.349Z,19.25
2019-04-28T07:15:08.050Z,20.56
2019-04-28T07:17:39.186Z,21.44
2019-04-28T07:20:06.864Z,20.53
2019-04-28T07:22:33.923Z,18.82
2019-04-28T07:25:01.970Z,16.76
2019-04-28T07:27:29.367Z,16.49
2019-04-28T07:29:57.293Z,16.60
2019-04-28T07:32:26.540Z,16.99
2019-04-28T07:34:53.772Z,17.27
2019-04-28T07:37:20.937Z,17.09
2019-04-28T07:39:53.299Z,15.38
2019-04-28T07:42:22.523Z,15.09
2019-04-28T07:44:55.960Z,15.31
2019-04-28T07:47:23.028Z,15.07
2019-04-28T07:49:50.174Z,15.67
2019-04-28T07:52:17.234Z,17.05
2019-04-28T07:54:47.457Z,17.56
2019-04-28T07:59:56.832Z,16.02
2019-04-28T08:02:24.158Z,14.49
2019-04-28T08:04:51.913Z,14.16
2019-04-28T08:07:19.470Z,14.03
2019-04-28T08:09:48.604Z,13.70
2019-04-28T08:12:18.092Z,13.15
2019-04-28T08:14:45.262Z,12.34
2019-04-28T08:17:18.231Z,11.89
2019-04-28T08:19:46.790Z,11.60
2019-04-28T08:22:19.857Z,13.05
2019-04-28T08:24:51.842Z,15.66
2019-04-28T08:27:18.887Z,16.24
2019-04-28T08:29:57.811Z,17.37
2019-04-28T08:32:16.278Z,17.67
2019-04-28T08:37:18.296Z,15.98
2019-04-28T08:39:47.484Z,15.11
2019-04-28T08:42:14.723Z,15.92
2019-04-28T08:44:46.758Z,17.90
2019-04-28T08:47:22.030Z,18.99
2019-04-28T08:49:49.304Z,19.91
2019-04-28T08:52:16.349Z,20.41
2019-04-28T08:54:43.925Z,18.84
2019-04-28T08:57:16.491Z,17.37
2019-04-28T08:59:47.582Z,15.88
2019-04-28T09:02:16.059Z,15.38
2019-04-28T09:04:45.309Z,16.18
2019-04-28T09:09:49.648Z,14.84
2019-04-28T09:12:16.642Z,14.56
2019-04-28T09:14:48.980Z,13.61
2019-04-28T09:17:16.268Z,12.43
2019-04-28T09:19:43.465Z,11.79
2019-04-28T09:22:18.066Z,11.51
2019-04-28T09:24:46.271Z,11.90
2019-04-28T09:29:44.876Z,14.34
2019-04-28T09:32:12.299Z,15.59
2019-04-28T09:34:39.966Z,16.27
2019-04-28T09:37:07.230Z,16.42
2019-04-28T09:39:39.669Z,15.71
2019-04-28T09:42:06.869Z,14.45
2019-04-28T09:47:12.434Z,13.44
2019-04-28T09:49:39.686Z,13.18
2019-04-28T09:52:06.980Z,13.23
2019-04-28T09:54:36.236Z,13.21
2019-04-28T09:57:04.393Z,13.53
2019-04-28T09:59:36.963Z,14.33
2019-04-28T10:02:05.146Z,14.64
2019-04-28T10:04:41.606Z,14.47
2019-04-28T10:07:21.741Z,13.90
2019-04-28T10:09:50.225Z,13.67
2019-04-28T10:12:27.366Z,13.35
2019-04-28T10:14:54.044Z,13.68
2019-04-28T10:17:23.361Z,14.55
2019-04-28T10:19:50.804Z,15.34
2019-04-28T10:22:23.206Z,15.85
2019-04-28T10:24:52.701Z,15.30
2019-04-28T10:27:22.190Z,14.41
2019-04-28T10:29:50.412Z,13.64
2019-04-28T10:32:19.596Z,13.06
2019-04-28T10:34:54.696Z,12.69
2019-04-28T10:37:22.668Z,12.55
2019-04-28T10:42:24.157Z,12.28
2019-04-28T10:47:35.589Z,12.31
2019-04-28T10:50:03.107Z,14.35
2019-04-28T10:52:31.378Z,16.38
2019-04-28T10:55:03.375Z,16.41
2019-04-28T10:57:32.668Z,15.93
2019-04-28T10:59:59.937Z,15.17
2019-04-28T11:02:27.866Z,14.14
2019-04-28T11:05:07.814Z,13.14
2019-04-28T11:07:27.717Z,12.63
2019-04-28T11:09:56.920Z,12.43
2019-04-28T11:12:24.151Z,12.34
2019-04-28T11:14:52.010Z,12.12
2019-04-28T11:17:19.073Z,12.16
2019-04-28T11:19:46.722Z,12.02
2019-04-28T11:22:13.924Z,12.65
2019-04-28T11:24:42.383Z,13.41
2019-04-28T11:27:09.653Z,14.65
2019-04-28T11:29:49.357Z,15.47
2019-04-28T11:32:20.697Z,17.25
2019-04-28T11:34:49.945Z,19.18
2019-04-28T11:37:17.456Z,20.23
2019-04-28T11:39:45.244Z,19.21
2019-04-28T11:42:14.828Z,19.08
2019-04-28T11:44:48.842Z,18.53
2019-04-28T11:49:49.080Z,17.44
2019-04-28T11:52:17.583Z,17.23
2019-04-28T11:54:50.887Z,17.08
2019-04-28T11:57:18.159Z,17.08
2019-04-28T11:59:58.370Z,17.12
2019-04-28T12:02:25.930Z,17.06
2019-04-28T12:04:53.112Z,16.99
2019-04-28T12:07:21.403Z,16.95
2019-04-28T12:10:03.343Z,17.94
2019-04-28T12:12:20.795Z,19.65
2019-04-28T12:14:48.542Z,20.78
2019-04-28T12:17:15.740Z,21.12
2019-04-28T12:19:48.245Z,21.12
2019-04-28T12:22:15.724Z,20.58
2019-04-28T12:24:47.093Z,21.84
2019-04-28T12:27:18.266Z,23.06
2019-04-28T12:29:47.010Z,24.38
2019-04-28T12:32:14.463Z,25.62
2019-04-28T12:34:48.513Z,24.50
2019-04-28T12:37:15.789Z,22.33
2019-04-28T12:39:44.296Z,20.12
2019-04-28T12:42:11.513Z,18.60
2019-04-28T12:44:45.645Z,17.43
2019-04-28T12:47:16.320Z,16.37
2019-04-28T12:49:45.818Z,15.48
2019-04-28T12:52:14.090Z,14.62
2019-04-28T12:54:48.241Z,13.71
2019-04-28T12:57:15.575Z,12.68
2019-04-28T12:59:43.331Z,11.67
2019-04-28T13:04:51.763Z,10.73
2019-04-28T13:07:18.813Z,10.17
2019-04-28T13:12:16.228Z,10.04
2019-04-28T13:14:52.054Z,10.11
2019-04-28T13:17:19.238Z,10.27
2019-04-28T13:19:46.277Z,10.58
2019-04-28T13:22:25.178Z,11.11
2019-04-28T13:24:52.380Z,11.65
2019-04-28T13:27:24.902Z,12.32
2019-04-28T13:29:56.386Z,12.35
2019-04-28T13:35:09.380Z,12.86
2019-04-28T13:40:09.797Z,13.26
2019-04-28T13:42:37.067Z,13.53
2019-04-28T13:45:04.941Z,13.77
2019-04-28T13:47:32.323Z,13.91
2019-04-28T13:49:59.656Z,13.91
2019-04-28T13:52:28.118Z,13.90
2019-04-28T13:54:55.334Z,13.78
2019-04-28T13:57:22.379Z,13.72
2019-04-28T13:59:50.019Z,13.61
2019-04-28T14:02:17.173Z,13.61
2019-04-28T14:04:44.447Z,13.64
2019-04-28T14:07:13.650Z,13.66
2019-04-28T14:09:42.876Z,13.42
2019-04-28T14:12:11.001Z,13.54
2019-04-28T14:14:39.194Z,13.56
2019-04-28T14:17:21.583Z,12.51
2019-04-28T14:19:53.261Z,12.61
2019-04-28T14:22:27.049Z,12.98
2019-04-28T14:24:55.248Z,13.22
2019-04-28T14:27:31.799Z,13.45
2019-04-28T14:32:32.044Z,13.51
2019-04-28T14:35:04.317Z,13.18
2019-04-28T14:37:32.050Z,12.92
2019-04-28T14:39:59.242Z,12.70
2019-04-28T14:42:26.465Z,12.77
2019-04-28T14:44:53.755Z,12.90
2019-04-28T14:47:21.896Z,13.09
2019-04-28T14:49:49.226Z,13.25
2019-04-28T14:52:17.427Z,13.47
2019-04-28T14:54:44.489Z,13.54
2019-04-28T14:57:14.642Z,13.55
2019-04-28T14:59:43.924Z,13.49
2019-04-28T15:02:12.166Z,13.49
2019-04-28T15:04:39.376Z,13.22
2019-04-28T15:07:07.283Z,12.92
2019-04-28T15:09:34.457Z,12.59
2019-04-28T15:12:09.593Z,12.22
2019-04-28T15:14:36.857Z,11.95
2019-04-28T15:17:04.789Z,11.70
2019-04-28T15:19:33.367Z,11.42
2019-04-28T15:22:07.602Z,11.12
2019-04-28T15:27:10.475Z,10.90
2019-04-28T15:29:43.202Z,10.86
2019-04-28T15:32:12.653Z,10.77
2019-04-28T15:37:18.343Z,10.54
2019-04-28T15:39:46.625Z,10.45
2019-04-28T15:42:15.086Z,10.57
2019-04-28T15:44:44.606Z,10.51
2019-04-28T15:47:12.789Z,10.43
2019-04-28T15:49:44.670Z,10.20
2019-04-28T15:52:26.420Z,10.08
2019-04-28T15:54:53.478Z,9.83
2019-04-28T15:57:20.638Z,9.85
2019-04-28T15:59:48.173Z,9.95
2019-04-28T16:02:15.942Z,10.00
2019-04-28T16:07:24.700Z,10.01
2019-04-28T16:15:01.911Z,9.77
2019-04-28T16:17:32.417Z,9.71
2019-04-28T16:19:59.533Z,9.65
2019-04-28T16:22:30.852Z,9.65
2019-04-28T16:24:59.308Z,9.64
2019-04-28T16:27:27.073Z,9.59
2019-04-28T16:29:56.297Z,9.52
2019-04-28T16:32:23.725Z,9.49
2019-04-28T16:34:50.903Z,9.52
2019-04-28T16:40:07.691Z,9.78
2019-04-28T16:42:34.034Z,9.79
2019-04-28T16:45:08.075Z,9.75
2019-04-28T16:47:36.382Z,9.80
2019-04-28T16:50:04.310Z,9.92
2019-04-28T16:52:37.281Z,10.01
2019-04-28T16:57:44.859Z,10.12
2019-04-28T17:00:18.113Z,10.11
2019-04-28T17:02:45.447Z,10.00
2019-04-28T17:05:17.752Z,9.93
2019-04-28T17:07:53.306Z,9.86
2019-04-28T17:10:17.970Z,9.84
2019-04-28T17:12:45.407Z,9.74
2019-04-28T17:15:17.719Z,9.67
2019-04-28T17:17:45.242Z,9.62
2019-04-28T17:20:12.290Z,9.55
2019-04-28T17:22:39.483Z,9.46
2019-04-28T17:25:06.521Z,9.39
2019-04-28T17:27:46.334Z,9.37
2019-04-28T17:30:13.667Z,9.42
2019-04-28T17:32:42.567Z,9.60
2019-04-28T17:35:12.195Z,9.68
2019-04-28T17:37:45.532Z,9.63
2019-04-28T17:40:12.571Z,9.62
2019-04-28T17:42:41.771Z,9.54
2019-04-28T17:45:09.007Z,9.45
2019-04-28T17:47:36.544Z,9.37
2019-04-28T17:50:04.762Z,9.38
2019-04-28T17:52:31.971Z,9.43
2019-04-28T17:54:59.660Z,9.38
2019-04-28T17:57:28.640Z,9.38
2019-04-28T17:59:55.969Z,9.33
2019-04-28T18:02:24.403Z,9.25
2019-04-28T18:04:51.543Z,9.21
2019-04-28T18:07:25.637Z,9.14
2019-04-28T18:09:53.490Z,9.12
2019-04-28T18:12:26.069Z,9.08
2019-04-28T18:17:23.990Z,9.02
2019-04-28T18:19:58.392Z,9.03
2019-04-28T18:22:25.829Z,9.03
2019-04-28T18:24:54.382Z,9.01
2019-04-28T18:27:22.635Z,8.99
2019-04-28T18:29:54.889Z,8.95
2019-04-28T18:32:25.614Z,8.90
2019-04-28T18:34:53.243Z,8.86
2019-04-28T18:37:20.714Z,8.77
2019-04-28T18:39:48.915Z,8.73
2019-04-28T18:42:21.941Z,8.64
2019-04-28T18:44:49.156Z,8.59
2019-04-28T18:47:17.353Z,8.54
2019-04-28T18:49:44.589Z,8.48
2019-04-28T18:52:12.644Z,8.44
2019-04-28T18:54:45.767Z,8.40
2019-04-28T18:57:13.074Z,8.34
2019-04-28T18:59:41.295Z,8.29
2019-04-28T19:02:14.238Z,8.22
2019-04-28T19:04:41.438Z,8.11
2019-04-28T19:07:14.502Z,8.00
2019-04-28T19:09:43.062Z,7.88
2019-04-28T19:12:11.523Z,7.78
2019-04-28T19:14:44.420Z,7.66
2019-04-28T19:17:12.374Z,7.55
2019-04-28T19:19:42.596Z,7.41
2019-04-28T19:22:12.963Z,7.31
2019-04-28T19:24:40.528Z,7.22
2019-04-28T19:27:08.761Z,7.13
2019-04-28T19:29:35.870Z,7.05
2019-04-28T19:32:06.664Z,7.00
2019-04-28T19:39:46.692Z,6.66
2019-04-28T19:42:14.739Z,6.61
2019-04-28T19:44:41.918Z,6.60
2019-04-28T19:47:09.937Z,6.61
2019-04-28T19:49:42.255Z,6.64
2019-04-28T19:52:11.437Z,6.69
2019-04-28T19:54:39.694Z,6.70
2019-04-28T19:57:07.951Z,6.73
2019-04-28T20:02:14.317Z,6.77
2019-04-28T20:04:42.947Z,6.73
2019-04-28T20:07:11.972Z,6.74
2019-04-28T20:09:39.238Z,6.72
2019-04-28T20:12:06.457Z,6.72
2019-04-28T20:14:33.995Z,6.65
2019-04-28T20:17:01.899Z,6.58
2019-04-28T20:19:30.644Z,6.48
2019-04-28T20:21:57.826Z,6.41
2019-04-28T20:24:26.120Z,6.36
2019-04-28T20:26:53.361Z,6.29
2019-04-28T20:29:23.169Z,6.24
2019-04-28T20:31:49.595Z,6.19
2019-04-28T20:34:16.871Z,6.15
2019-04-28T20:36:45.320Z,6.12
2019-04-28T20:39:16.891Z,6.06
2019-04-28T20:41:48.953Z,6.00
2019-04-28T20:44:16.556Z,5.95
2019-04-28T20:46:48.140Z,5.90
2019-04-28T20:49:22.190Z,5.86
2019-04-28T20:51:49.457Z,5.85
2019-04-28T20:54:16.682Z,5.77
2019-04-28T20:56:48.361Z,5.75
2019-04-28T20:59:15.593Z,5.77
2019-04-28T21:01:42.766Z,5.76
2019-04-28T21:04:10.687Z,5.73
2019-04-28T21:06:37.889Z,5.63
2019-04-28T21:09:14.128Z,5.57
2019-04-28T21:14:20.867Z,5.44
2019-04-28T21:16:47.949Z,5.40
2019-04-28T21:19:14.980Z,5.42
2019-04-28T21:21:42.034Z,5.41
2019-04-28T21:24:09.230Z,5.39
2019-04-28T21:26:36.282Z,5.39
2019-04-28T21:29:03.315Z,5.40
2019-04-28T21:31:32.813Z,5.43
2019-04-28T21:33:59.941Z,5.44
2019-04-28T21:36:26.984Z,5.41
2019-04-28T21:38:54.018Z,5.39
2019-04-28T21:41:21.059Z,5.37
2019-04-28T21:43:49.367Z,5.35
2019-04-28T21:46:16.411Z,5.35
2019-04-28T21:48:44.418Z,5.33
2019-04-28T21:51:12.300Z,5.30
2019-04-28T21:53:40.441Z,5.29
2019-04-28T21:56:07.529Z,5.26
2019-04-28T21:58:34.749Z,5.25
2019-04-28T22:01:01.806Z,5.23
2019-04-28T22:03:30.457Z,5.25
2019-04-28T22:05:57.504Z,5.25
2019-04-28T22:08:24.587Z,5.22
2019-04-28T22:10:51.917Z,5.19
2019-04-28T22:13:18.961Z,5.18
2019-04-28T22:15:46.322Z,5.18
2019-04-28T22:18:13.378Z,5.16
2019-04-28T22:20:40.403Z,5.11
2019-04-28T22:23:17.981Z,5.09
2019-04-28T22:25:36.428Z,5.08
2019-04-28T22:28:03.802Z,5.06
2019-04-28T22:30:30.828Z,5.03
2019-04-28T22:32:57.875Z,5.02
2019-04-28T22:35:25.167Z,5.03
2019-04-28T22:37:52.211Z,5.03
2019-04-28T22:40:19.589Z,5.02
2019-04-28T22:42:46.599Z,4.98
2019-04-28T22:45:13.644Z,4.98
2019-04-28T22:47:40.999Z,4.98
2019-04-28T22:50:08.032Z,4.99
2019-04-28T22:52:38.989Z,4.96
2019-04-28T22:55:06.350Z,4.96
2019-04-28T22:57:33.645Z,4.99
2019-04-28T23:00:01.747Z,5.01
2019-04-28T23:02:30.268Z,5.03
2019-04-28T23:04:57.311Z,5.06
2019-04-28T23:07:24.601Z,5.07
2019-04-28T23:09:51.630Z,5.10
2019-04-28T23:12:18.677Z,5.08
2019-04-28T23:14:45.704Z,5.06
2019-04-28T23:17:12.752Z,5.04
2019-04-28T23:19:40.019Z,5.00
2019-04-28T23:22:07.108Z,4.96
2019-04-28T23:24:34.103Z,4.94
2019-04-28T23:27:01.136Z,4.90
2019-04-28T23:29:30.595Z,4.86
2019-04-28T23:31:57.185Z,4.82
2019-04-28T23:34:24.567Z,4.77
2019-04-28T23:36:51.577Z,4.75
2019-04-28T23:39:18.625Z,4.75
2019-04-28T23:41:45.660Z,4.72
2019-04-28T23:44:12.705Z,4.70
2019-04-28T23:46:39.732Z,4.64
2019-04-28T23:49:06.788Z,4.59
2019-04-28T23:51:33.822Z,4.58
2019-04-28T23:54:01.126Z,4.56
2019-04-28T23:56:28.484Z,4.54
2019-04-28T23:58:55.534Z,4.51
